createdAt,value
2018-11-23T00:01:16.261Z,22.33
2018-11-23T00:06:19.929Z,21.10
2018-11-23T00:11:25.450Z,20.47
2018-11-23T00:16:29.021Z,20.43
2018-11-23T00:21:32.600Z,19.47
2018-11-23T00:26:36.211Z,20.97
2018-11-23T00:31:39.783Z,20.80
2018-11-23T00:36:43.541Z,18.50
2018-11-23T00:41:47.166Z,17.27
2018-11-23T00:46:50.798Z,17.37
2018-11-23T00:51:54.625Z,16.33
2018-11-23T00:56:58.242Z,18.63
2018-11-23T01:02:03.488Z,16.37
2018-11-23T01:07:07.085Z,17.83
2018-11-23T01:12:10.729Z,17.10
2018-11-23T01:17:14.311Z,18.03
2018-11-23T01:22:17.877Z,16.70
2018-11-23T01:27:22.370Z,17.60
2018-11-23T01:32:26.909Z,17.27
2018-11-23T01:37:31.241Z,17.33
2018-11-23T01:42:36.786Z,18.50
2018-11-23T01:47:40.639Z,17.13
2018-11-23T01:52:45.732Z,18.40
2018-11-23T01:57:49.389Z,17.43
2018-11-23T02:02:54.012Z,17.77
2018-11-23T02:07:57.906Z,17.10
2018-11-23T02:13:01.461Z,16.47
2018-11-23T02:18:05.117Z,15.90
2018-11-23T02:23:10.573Z,16.53
2018-11-23T02:28:14.336Z,17.17
2018-11-23T02:33:17.945Z,16.43
2018-11-23T02:38:21.556Z,16.97
2018-11-23T02:43:25.325Z,17.00
2018-11-23T02:48:29.344Z,16.20
2018-11-23T02:53:34.989Z,16.43
2018-11-23T02:58:38.775Z,17.60
2018-11-23T03:03:43.006Z,16.53
2018-11-23T03:08:47.788Z,16.93
2018-11-23T03:13:51.625Z,16.07
2018-11-23T03:18:55.258Z,15.70
2018-11-23T03:23:58.862Z,14.93
2018-11-23T03:29:02.885Z,14.33
2018-11-23T03:34:07.102Z,13.97
2018-11-23T03:39:12.633Z,15.00
2018-11-23T03:44:16.489Z,15.43
2018-11-23T03:49:35.371Z,14.80
2018-11-23T03:54:39.305Z,15.40
2018-11-23T03:59:42.904Z,16.00
2018-11-23T04:04:46.961Z,14.63
2018-11-23T04:09:51.432Z,16.40
2018-11-23T04:14:55.032Z,16.13
2018-11-23T04:19:58.618Z,17.07
2018-11-23T04:25:02.398Z,15.60
2018-11-23T04:30:09.030Z,15.53
2018-11-23T04:35:14.712Z,15.97
2018-11-23T04:40:19.721Z,15.13
2018-11-23T04:45:24.077Z,15.87
2018-11-23T04:50:27.777Z,14.57
2018-11-23T04:55:31.362Z,15.83
2018-11-23T05:00:35.275Z,15.57
2018-11-23T05:05:38.869Z,16.43
2018-11-23T05:10:42.485Z,15.50
2018-11-23T05:15:46.941Z,16.00
2018-11-23T05:20:50.500Z,15.67
2018-11-23T05:25:54.470Z,16.00
2018-11-23T05:30:58.051Z,16.37
2018-11-23T05:36:01.639Z,16.77
2018-11-23T05:41:05.314Z,14.60
2018-11-23T05:46:09.562Z,14.83
2018-11-23T05:51:13.667Z,14.70
2018-11-23T05:56:23.689Z,15.40
2018-11-23T06:01:27.317Z,15.43
2018-11-23T06:06:30.897Z,15.00
2018-11-23T06:11:34.545Z,14.73
2018-11-23T06:16:39.855Z,14.30
2018-11-23T06:21:43.592Z,14.20
2018-11-23T06:26:47.279Z,15.27
2018-11-23T06:31:50.868Z,14.07
2018-11-23T06:36:54.470Z,15.70
2018-11-23T06:41:58.347Z,15.67
2018-11-23T06:47:02.214Z,16.30
2018-11-23T06:52:05.844Z,15.57
2018-11-23T06:57:09.430Z,16.23
2018-11-23T07:02:14.325Z,15.00
2018-11-23T07:07:17.956Z,15.07
2018-11-23T07:12:22.136Z,15.10
2018-11-23T07:17:25.712Z,15.23
2018-11-23T07:22:29.344Z,15.23
2018-11-23T07:27:32.952Z,15.70
2018-11-23T07:32:38.208Z,15.43
2018-11-23T07:37:41.821Z,15.80
2018-11-23T07:42:46.137Z,14.50
2018-11-23T07:47:50.013Z,14.70
2018-11-23T07:52:53.677Z,15.43
2018-11-23T07:57:57.251Z,14.87
2018-11-23T08:03:00.853Z,16.03
2018-11-23T08:08:05.320Z,15.40
2018-11-23T08:13:08.946Z,16.17
2018-11-23T08:18:12.829Z,15.23
2018-11-23T08:23:16.744Z,16.30
2018-11-23T08:28:20.573Z,13.93
2018-11-23T08:33:24.586Z,13.43
2018-11-23T08:38:28.207Z,14.47
2018-11-23T08:43:31.844Z,15.13
2018-11-23T08:48:35.468Z,13.50
2018-11-23T08:53:39.119Z,12.77
2018-11-23T08:58:43.696Z,13.00
2018-11-23T09:03:47.618Z,14.50
2018-11-23T09:08:51.601Z,14.63
2018-11-23T09:13:55.443Z,14.17
2018-11-23T09:18:59.022Z,14.07
2018-11-23T09:24:03.622Z,14.20
2018-11-23T09:29:07.218Z,14.23
2018-11-23T09:34:11.509Z,14.40
2018-11-23T09:39:15.648Z,13.73
2018-11-23T09:44:19.231Z,14.07
2018-11-23T09:49:22.943Z,13.43
2018-11-23T09:54:26.490Z,14.17
2018-11-23T09:59:30.519Z,12.70
2018-11-23T10:04:35.056Z,13.57
2018-11-23T10:09:38.757Z,14.00
2018-11-23T10:14:42.365Z,13.67
2018-11-23T10:19:46.289Z,13.07
2018-11-23T10:24:50.072Z,12.50
2018-11-23T10:29:55.366Z,13.60
2018-11-23T10:34:57.385Z,13.90
2018-11-23T10:40:01.253Z,14.80
2018-11-23T10:45:06.126Z,13.47
2018-11-23T10:50:12.658Z,16.60
2018-11-23T10:55:18.402Z,15.30
2018-11-23T11:00:28.130Z,13.00
2018-11-23T11:05:37.190Z,13.53
2018-11-23T11:10:42.369Z,21.87
2018-11-23T11:15:46.067Z,12.70
2018-11-23T11:20:50.095Z,12.83
2018-11-23T11:25:57.234Z,13.63
2018-11-23T11:31:00.918Z,13.13
2018-11-23T11:36:05.709Z,17.20
2018-11-23T11:41:09.764Z,12.07
2018-11-23T11:46:13.390Z,14.00
2018-11-23T11:51:17.712Z,13.90
2018-11-23T11:56:23.184Z,12.47
2018-11-23T12:01:27.993Z,13.30
2018-11-23T12:06:32.517Z,12.50
2018-11-23T12:11:36.148Z,12.60
2018-11-23T12:16:41.736Z,11.90
2018-11-23T12:21:45.395Z,13.13
2018-11-23T12:26:54.558Z,12.10
2018-11-23T12:31:58.537Z,12.33
2018-11-23T12:37:02.153Z,12.23
2018-11-23T12:42:06.303Z,12.50
2018-11-23T12:47:12.121Z,12.60
2018-11-23T12:52:15.731Z,11.77
2018-11-23T12:57:19.317Z,12.03
2018-11-23T13:02:25.351Z,11.40
2018-11-23T13:07:29.152Z,12.00
2018-11-23T13:12:32.699Z,12.90
2018-11-23T13:17:36.378Z,12.73
2018-11-23T13:22:40.275Z,14.50
2018-11-23T13:27:44.028Z,12.80
2018-11-23T13:32:47.646Z,13.43
2018-11-23T13:37:51.511Z,14.03
2018-11-23T13:42:56.179Z,13.67
2018-11-23T13:48:00.100Z,14.53
2018-11-23T13:53:05.883Z,14.43
2018-11-23T13:58:09.761Z,13.30
2018-11-23T14:03:17.222Z,13.70
2018-11-23T14:08:21.077Z,14.07
2018-11-23T14:13:24.684Z,13.63
2018-11-23T14:18:28.294Z,13.40
2018-11-23T14:23:32.574Z,14.10
2018-11-23T14:28:36.595Z,13.67
2018-11-23T14:33:40.644Z,12.90
2018-11-23T14:38:44.394Z,13.70
2018-11-23T14:43:48.063Z,13.37
2018-11-23T14:48:51.895Z,18.43
2018-11-23T14:53:55.516Z,14.97
2018-11-23T14:59:01.037Z,14.33
2018-11-23T15:04:07.642Z,14.60
2018-11-23T15:09:14.059Z,14.33
2018-11-23T15:14:17.671Z,13.40
2018-11-23T15:19:21.834Z,14.07
2018-11-23T15:24:28.666Z,13.43
2018-11-23T15:29:32.303Z,14.40
2018-11-23T15:34:35.918Z,13.83
2018-11-23T15:39:39.956Z,12.93
2018-11-23T15:44:43.848Z,12.13
2018-11-23T15:49:47.898Z,19.70
2018-11-23T15:54:51.716Z,17.13
2018-11-23T15:59:55.548Z,17.17
2018-11-23T16:04:59.463Z,18.67
2018-11-23T16:10:03.597Z,13.47
2018-11-23T16:15:08.361Z,11.90
2018-11-23T16:20:15.448Z,12.30
2018-11-23T16:25:19.468Z,13.73
2018-11-23T16:30:24.723Z,19.17
2018-11-23T16:35:32.462Z,14.77
2018-11-23T16:40:38.408Z,13.43
2018-11-23T16:45:44.482Z,14.53
2018-11-23T16:50:48.392Z,15.40
2018-11-23T16:55:52.260Z,14.17
2018-11-23T17:00:56.216Z,12.53
2018-11-23T17:06:00.459Z,12.60
2018-11-23T17:11:04.581Z,24.13
2018-11-23T17:16:08.436Z,24.40
2018-11-23T17:21:12.441Z,18.07
2018-11-23T17:26:16.402Z,14.40
2018-11-23T17:31:20.242Z,14.20
2018-11-23T17:36:24.041Z,13.43
2018-11-23T17:41:27.968Z,14.10
2018-11-23T17:46:32.109Z,12.40
2018-11-23T17:51:36.026Z,10.90
2018-11-23T17:56:39.836Z,11.20
2018-11-23T18:01:43.844Z,9.77
2018-11-23T18:06:48.015Z,10.50
2018-11-23T18:11:51.731Z,9.80
2018-11-23T18:16:55.671Z,10.57
2018-11-23T18:21:59.493Z,10.50
2018-11-23T18:27:03.332Z,13.63
2018-11-23T18:32:07.023Z,11.03
2018-11-23T18:37:10.793Z,9.93
2018-11-23T18:42:15.062Z,10.17
2018-11-23T18:47:19.070Z,9.50
2018-11-23T18:52:29.470Z,10.20
2018-11-23T18:57:33.336Z,10.30
2018-11-23T19:02:36.974Z,12.10
2018-11-23T19:07:40.814Z,13.67
2018-11-23T19:12:44.423Z,13.77
2018-11-23T19:17:50.734Z,12.03
2018-11-23T19:22:55.359Z,13.10
2018-11-23T19:27:58.983Z,12.30
2018-11-23T19:33:04.735Z,11.10
2018-11-23T19:38:08.639Z,11.60
2018-11-23T19:43:12.257Z,12.27
2018-11-23T19:48:15.873Z,13.17
2018-11-23T19:53:19.902Z,12.90
2018-11-23T19:58:23.594Z,13.60
2018-11-23T20:03:27.237Z,12.50
2018-11-23T20:08:30.850Z,12.00
2018-11-23T20:13:34.398Z,11.60
2018-11-23T20:18:38.385Z,11.80
2018-11-23T20:23:42.069Z,11.00
2018-11-23T20:28:45.909Z,10.80
2018-11-23T20:33:49.532Z,11.20
2018-11-23T20:38:53.112Z,10.30
2018-11-23T20:43:56.700Z,11.10
2018-11-23T20:49:00.287Z,9.77
2018-11-23T20:54:04.602Z,9.97
2018-11-23T20:59:08.357Z,10.63
2018-11-23T21:04:11.964Z,9.37
2018-11-23T21:09:15.887Z,9.40
2018-11-23T21:14:20.014Z,10.20
2018-11-23T21:19:24.058Z,10.37
2018-11-23T21:24:27.725Z,10.10
2018-11-23T21:29:31.745Z,9.30
2018-11-23T21:34:35.591Z,10.10
2018-11-23T21:39:39.348Z,9.27
2018-11-23T21:44:43.013Z,8.80
2018-11-23T21:49:46.588Z,9.00
2018-11-23T21:54:50.492Z,10.00
2018-11-23T21:59:54.772Z,10.23
2018-11-23T22:04:59.187Z,10.57
2018-11-23T22:10:03.500Z,9.20
2018-11-23T22:15:12.233Z,9.67
2018-11-23T22:20:18.169Z,8.80
2018-11-23T22:25:23.070Z,12.03
2018-11-23T22:30:29.295Z,9.23
2018-11-23T22:35:32.950Z,10.00
2018-11-23T22:40:36.546Z,9.20
2018-11-23T22:45:40.553Z,8.60
2018-11-23T22:50:44.122Z,7.70
2018-11-23T22:55:47.871Z,7.03
2018-11-23T23:00:55.727Z,7.87
2018-11-23T23:06:00.125Z,8.03
2018-11-23T23:11:03.248Z,7.70
2018-11-23T23:16:07.377Z,8.90
2018-11-23T23:21:11.207Z,7.67
2018-11-23T23:26:15.256Z,8.10
2018-11-23T23:31:18.805Z,10.83
2018-11-23T23:36:22.676Z,8.70
2018-11-23T23:41:26.376Z,9.90
2018-11-23T23:46:30.216Z,9.70
2018-11-23T23:51:34.202Z,8.33
2018-11-23T23:56:39.101Z,8.63
